createdAt,value
2019-03-20T00:00:34.876Z,9.93
2019-03-20T00:03:04.042Z,13.20
2019-03-20T00:05:33.374Z,10.87
2019-03-20T00:08:02.387Z,8.90
2019-03-20T00:10:31.378Z,9.83
2019-03-20T00:13:00.324Z,14.63
2019-03-20T00:15:29.338Z,6.90
2019-03-20T00:17:58.507Z,9.53
2019-03-20T00:20:27.453Z,8.70
2019-03-20T00:22:56.330Z,9.90
2019-03-20T00:25:25.207Z,8.07
2019-03-20T00:27:54.167Z,13.47
2019-03-20T00:30:23.156Z,7.17
2019-03-20T00:32:52.068Z,14.40
2019-03-20T00:35:21.131Z,13.57
2019-03-20T00:37:50.134Z,8.93
2019-03-20T00:40:19.290Z,8.37
2019-03-20T00:42:48.205Z,8.67
2019-03-20T00:45:17.190Z,12.87
2019-03-20T00:47:48.383Z,13.23
2019-03-20T00:50:17.488Z,10.27
2019-03-20T00:52:46.457Z,10.23
2019-03-20T00:55:16.248Z,8.07
2019-03-20T00:57:45.270Z,8.93
2019-03-20T01:00:16.379Z,12.77
2019-03-20T01:02:45.322Z,11.50
2019-03-20T01:15:47.194Z,12.27
2019-03-20T01:18:16.168Z,9.40
2019-03-20T01:20:45.114Z,8.93
2019-03-20T01:23:14.185Z,7.77
2019-03-20T01:25:43.022Z,8.50
2019-03-20T01:28:11.954Z,7.13
2019-03-20T01:30:41.601Z,8.67
2019-03-20T01:33:11.365Z,7.40
2019-03-20T01:35:40.351Z,9.57
2019-03-20T01:38:09.265Z,6.60
2019-03-20T01:40:40.303Z,8.30
2019-03-20T01:43:09.339Z,7.67
2019-03-20T01:45:38.396Z,8.30
2019-03-20T01:48:11.287Z,6.17
2019-03-20T01:50:40.635Z,14.63
2019-03-20T01:53:09.565Z,10.50
2019-03-20T01:55:38.404Z,6.37
2019-03-20T01:58:07.321Z,5.40
2019-03-20T02:00:36.450Z,4.97
2019-03-20T02:03:05.457Z,5.70
2019-03-20T02:05:36.233Z,7.73
2019-03-20T02:08:05.080Z,8.57
2019-03-20T02:10:33.947Z,9.93
2019-03-20T02:13:02.780Z,6.93
2019-03-20T02:15:39.114Z,7.37
2019-03-20T02:18:04.836Z,8.50
2019-03-20T02:20:33.702Z,8.03
2019-03-20T02:23:02.924Z,6.83
2019-03-20T02:25:32.512Z,5.23
2019-03-20T02:28:01.405Z,6.40
2019-03-20T02:30:30.241Z,8.97
2019-03-20T02:32:59.216Z,8.23
2019-03-20T02:35:28.068Z,7.97
2019-03-20T02:37:56.967Z,8.20
2019-03-20T02:40:25.884Z,8.53
2019-03-20T02:42:54.674Z,5.87
2019-03-20T02:45:23.556Z,7.70
2019-03-20T02:47:52.441Z,9.47
2019-03-20T02:50:21.305Z,6.57
2019-03-20T02:52:50.223Z,6.47
2019-03-20T02:55:19.182Z,6.77
2019-03-20T02:57:47.999Z,6.03
2019-03-20T03:00:17.018Z,8.40
2019-03-20T03:02:46.001Z,9.93
2019-03-20T03:05:15.386Z,9.50
2019-03-20T03:07:44.349Z,9.87
2019-03-20T03:10:16.627Z,9.47
2019-03-20T03:12:45.214Z,10.73
2019-03-20T03:15:14.667Z,7.70
2019-03-20T03:17:44.831Z,7.23
2019-03-20T03:20:13.948Z,5.80
2019-03-20T03:22:42.955Z,7.37
2019-03-20T03:25:12.141Z,8.57
2019-03-20T03:27:41.125Z,6.50
2019-03-20T03:30:10.338Z,10.53
2019-03-20T03:32:39.168Z,8.33
2019-03-20T03:35:16.050Z,9.03
2019-03-20T03:37:41.519Z,4.23
2019-03-20T03:40:10.726Z,8.33
2019-03-20T03:42:39.810Z,8.57
2019-03-20T03:45:10.310Z,6.27
2019-03-20T03:47:39.218Z,7.90
2019-03-20T03:50:08.384Z,7.00
2019-03-20T03:52:37.319Z,7.47
2019-03-20T03:55:06.564Z,10.80
2019-03-20T03:57:35.741Z,7.83
2019-03-20T04:00:05.321Z,5.40
2019-03-20T04:02:34.193Z,9.77
2019-03-20T04:05:06.096Z,8.23
2019-03-20T04:07:35.199Z,8.43
2019-03-20T04:10:04.387Z,7.33
2019-03-20T04:12:33.722Z,10.47
2019-03-20T04:15:02.672Z,9.50
2019-03-20T04:17:31.654Z,6.40
2019-03-20T04:20:00.586Z,6.70
2019-03-20T04:22:29.490Z,5.30
2019-03-20T04:24:58.527Z,9.57
2019-03-20T04:27:27.561Z,6.63
2019-03-20T04:29:56.581Z,5.20
2019-03-20T04:32:28.892Z,9.87
2019-03-20T04:35:08.197Z,7.07
2019-03-20T04:37:42.759Z,6.10
2019-03-20T04:40:11.747Z,5.53
2019-03-20T04:42:40.729Z,9.30
2019-03-20T04:45:12.529Z,7.70
2019-03-20T04:47:41.248Z,7.60
2019-03-20T04:50:10.612Z,8.13
2019-03-20T04:52:39.538Z,10.30
2019-03-20T04:55:08.543Z,5.93
2019-03-20T04:57:37.458Z,6.13
2019-03-20T05:00:08.092Z,7.93
2019-03-20T05:02:37.016Z,6.03
2019-03-20T05:05:06.215Z,8.57
2019-03-20T05:07:35.090Z,10.97
2019-03-20T05:10:04.277Z,12.93
2019-03-20T05:12:33.175Z,8.80
2019-03-20T05:15:02.510Z,8.27
2019-03-20T05:17:31.483Z,11.57
2019-03-20T05:20:00.366Z,10.23
2019-03-20T05:22:31.979Z,7.27
2019-03-20T05:25:00.997Z,9.70
2019-03-20T05:27:29.912Z,10.60
2019-03-20T05:29:58.786Z,13.40
2019-03-20T05:32:27.637Z,13.07
2019-03-20T05:34:56.540Z,15.77
2019-03-20T05:37:25.389Z,13.13
2019-03-20T05:40:17.506Z,14.97
2019-03-20T05:42:46.482Z,26.20
2019-03-20T05:45:15.420Z,23.47
2019-03-20T05:47:44.446Z,28.37
2019-03-20T05:50:13.653Z,25.80
2019-03-20T05:52:42.725Z,27.27
2019-03-20T05:55:15.322Z,24.27
2019-03-20T05:57:44.368Z,30.97
2019-03-20T06:00:14.454Z,21.17
2019-03-20T06:02:43.407Z,20.70
2019-03-20T06:05:12.586Z,20.77
2019-03-20T06:07:41.747Z,18.73
2019-03-20T06:10:11.935Z,22.70
2019-03-20T06:12:40.855Z,18.50
2019-03-20T06:15:10.185Z,14.10
2019-03-20T06:17:39.083Z,19.37
2019-03-20T06:20:08.366Z,17.80
2019-03-20T06:22:37.253Z,18.43
2019-03-20T06:25:06.446Z,18.67
2019-03-20T06:27:35.475Z,19.33
2019-03-20T06:30:05.352Z,19.10
2019-03-20T06:32:34.166Z,23.23
2019-03-20T06:35:03.489Z,24.93
2019-03-20T06:37:33.008Z,20.27
2019-03-20T06:40:02.036Z,22.73
2019-03-20T06:42:30.901Z,24.47
2019-03-20T06:44:59.796Z,23.03
2019-03-20T06:47:28.990Z,26.63
2019-03-20T06:49:58.113Z,22.27
2019-03-20T06:52:32.053Z,21.20
2019-03-20T06:55:01.545Z,24.53
2019-03-20T06:57:30.459Z,25.30
2019-03-20T07:00:42.076Z,24.10
2019-03-20T07:03:14.888Z,27.53
2019-03-20T07:06:10.895Z,27.20
2019-03-20T07:08:47.106Z,30.40
2019-03-20T07:11:15.871Z,26.30
2019-03-20T07:13:44.864Z,28.37
2019-03-20T07:16:15.253Z,36.80
2019-03-20T07:18:44.107Z,31.50
2019-03-20T07:21:13.099Z,35.13
2019-03-20T07:23:42.029Z,38.07
2019-03-20T07:26:10.912Z,37.57
2019-03-20T07:28:39.760Z,42.27
2019-03-20T07:31:15.095Z,40.00
2019-03-20T07:33:39.225Z,39.97
2019-03-20T07:36:08.070Z,44.17
2019-03-20T07:38:36.919Z,36.77
2019-03-20T07:41:05.935Z,41.77
2019-03-20T07:43:37.887Z,42.37
2019-03-20T07:46:07.119Z,43.53
2019-03-20T07:48:35.992Z,42.90
2019-03-20T07:51:05.327Z,38.97
2019-03-20T07:53:34.170Z,44.63
2019-03-20T07:56:03.067Z,39.33
2019-03-20T07:58:31.922Z,44.07
2019-03-20T08:01:00.778Z,40.87
2019-03-20T08:03:29.656Z,42.30
2019-03-20T08:05:58.645Z,36.97
2019-03-20T08:08:27.504Z,40.40
2019-03-20T08:10:56.361Z,40.53
2019-03-20T08:13:25.197Z,41.33
2019-03-20T08:15:54.041Z,39.27
2019-03-20T08:18:23.145Z,40.57
2019-03-20T08:20:52.009Z,37.90
2019-03-20T08:23:20.846Z,39.63
2019-03-20T08:25:49.768Z,41.57
2019-03-20T08:28:18.631Z,39.27
2019-03-20T08:30:47.519Z,37.93
2019-03-20T08:33:16.473Z,37.87
2019-03-20T08:35:45.329Z,37.83
2019-03-20T08:38:18.697Z,40.83
2019-03-20T08:40:47.135Z,35.83
2019-03-20T08:43:16.129Z,34.33
2019-03-20T08:45:45.101Z,36.37
2019-03-20T08:48:14.012Z,34.97
2019-03-20T08:50:43.045Z,38.80
2019-03-20T08:53:11.928Z,32.07
2019-03-20T08:55:40.132Z,29.80
2019-03-20T08:58:09.012Z,35.13
2019-03-20T09:00:38.027Z,34.00
2019-03-20T09:03:06.964Z,33.63
2019-03-20T09:05:35.889Z,37.13
2019-03-20T09:08:04.885Z,43.90
2019-03-20T09:10:33.891Z,31.83
2019-03-20T09:13:02.851Z,34.93
2019-03-20T09:15:31.673Z,35.10
2019-03-20T09:18:00.753Z,32.63
2019-03-20T09:20:29.704Z,32.57
2019-03-20T09:22:58.555Z,38.93
2019-03-20T09:25:27.658Z,32.90
2019-03-20T09:27:56.652Z,40.63
2019-03-20T09:30:25.645Z,32.20
2019-03-20T09:32:55.902Z,34.40
2019-03-20T09:35:24.987Z,36.60
2019-03-20T09:37:53.896Z,32.10
2019-03-20T09:40:23.785Z,34.47
2019-03-20T09:42:53.111Z,33.10
2019-03-20T09:45:22.241Z,29.73
2019-03-20T09:47:51.194Z,32.77
2019-03-20T09:50:20.305Z,34.33
2019-03-20T09:52:50.160Z,30.80
2019-03-20T09:55:19.109Z,28.87
2019-03-20T09:57:48.026Z,33.27
2019-03-20T10:00:18.874Z,30.70
2019-03-20T10:02:47.781Z,32.87
2019-03-20T10:05:17.053Z,29.00
2019-03-20T10:07:46.331Z,33.07
2019-03-20T10:10:19.807Z,31.90
2019-03-20T10:12:48.898Z,28.23
2019-03-20T10:15:18.259Z,31.07
2019-03-20T10:17:47.249Z,34.80
2019-03-20T10:20:17.700Z,31.17
2019-03-20T10:22:46.680Z,31.30
2019-03-20T10:25:15.934Z,35.97
2019-03-20T10:27:44.960Z,32.53
2019-03-20T10:30:20.905Z,31.13
2019-03-20T10:32:49.746Z,27.57
2019-03-20T10:35:19.190Z,34.53
2019-03-20T10:37:48.173Z,29.47
2019-03-20T10:40:18.776Z,31.07
2019-03-20T10:42:47.729Z,38.50
2019-03-20T10:45:16.691Z,32.73
2019-03-20T10:47:45.687Z,34.27
2019-03-20T10:50:16.543Z,33.87
2019-03-20T10:52:45.496Z,36.30
2019-03-20T10:55:14.496Z,31.93
2019-03-20T10:57:43.546Z,35.10
2019-03-20T11:00:19.551Z,36.23
2019-03-20T11:02:48.458Z,34.20
2019-03-20T11:05:17.866Z,34.60
2019-03-20T11:07:46.925Z,32.90
2019-03-20T11:10:17.759Z,37.87
2019-03-20T11:12:46.718Z,32.83
2019-03-20T11:15:16.004Z,35.47
2019-03-20T11:17:44.947Z,39.57
2019-03-20T11:20:15.298Z,38.43
2019-03-20T11:22:44.281Z,33.47
2019-03-20T11:25:14.663Z,35.43
2019-03-20T11:27:43.560Z,42.23
2019-03-20T11:30:18.489Z,35.60
2019-03-20T11:32:47.454Z,38.47
2019-03-20T11:35:16.358Z,36.33
2019-03-20T11:37:45.328Z,40.60
2019-03-20T11:40:17.330Z,34.80
2019-03-20T11:42:46.201Z,33.90
2019-03-20T11:45:15.182Z,34.87
2019-03-20T11:47:44.171Z,36.33
2019-03-20T11:50:15.693Z,40.27
2019-03-20T11:52:44.593Z,36.07
2019-03-20T11:55:13.753Z,38.10
2019-03-20T11:57:42.751Z,40.37
2019-03-20T12:00:13.900Z,38.53
2019-03-20T12:02:43.079Z,36.67
2019-03-20T12:05:12.882Z,39.67
2019-03-20T12:07:41.698Z,34.77
2019-03-20T12:10:13.616Z,38.33
2019-03-20T12:12:42.727Z,35.90
2019-03-20T12:15:11.723Z,37.30
2019-03-20T12:17:40.885Z,38.53
2019-03-20T12:20:15.005Z,39.80
2019-03-20T12:22:44.238Z,40.37
2019-03-20T12:25:15.788Z,38.63
2019-03-20T12:27:45.002Z,56.33
2019-03-20T12:30:16.440Z,37.73
2019-03-20T12:32:45.402Z,53.47
2019-03-20T12:35:15.010Z,39.47
2019-03-20T12:37:44.103Z,36.10
2019-03-20T12:40:21.262Z,41.87
2019-03-20T12:42:50.709Z,38.63
2019-03-20T12:45:20.890Z,44.63
2019-03-20T12:47:49.818Z,44.47
2019-03-20T12:50:18.907Z,42.90
2019-03-20T12:52:47.791Z,43.63
2019-03-20T12:55:16.897Z,41.23
2019-03-20T12:57:45.874Z,53.77
2019-03-20T13:00:16.775Z,42.80
2019-03-20T13:02:45.827Z,46.47
2019-03-20T13:05:15.289Z,49.90
2019-03-20T13:07:44.431Z,46.43
2019-03-20T13:10:15.332Z,42.13
2019-03-20T13:12:44.327Z,44.77
2019-03-20T13:15:18.639Z,45.70
2019-03-20T13:17:48.638Z,48.73
2019-03-20T13:20:18.144Z,42.07
2019-03-20T13:22:55.575Z,41.10
2019-03-20T13:25:24.576Z,43.83
2019-03-20T13:27:53.561Z,42.23
2019-03-20T13:30:28.827Z,40.77
2019-03-20T13:32:57.759Z,46.23
2019-03-20T13:35:45.914Z,43.93
2019-03-20T13:38:14.905Z,44.90
2019-03-20T13:40:43.898Z,42.87
2019-03-20T13:43:16.601Z,40.60
2019-03-20T13:45:45.507Z,38.57
2019-03-20T13:48:14.490Z,42.60
2019-03-20T13:50:43.409Z,42.97
2019-03-20T13:53:12.497Z,41.97
2019-03-20T13:55:41.408Z,40.30
2019-03-20T13:58:10.375Z,46.43
2019-03-20T14:00:39.333Z,47.33
2019-03-20T14:03:08.745Z,47.63
2019-03-20T14:05:37.955Z,45.70
2019-03-20T14:08:06.952Z,38.90
2019-03-20T14:10:49.294Z,45.20
2019-03-20T14:13:06.565Z,46.43
2019-03-20T14:15:35.578Z,47.63
2019-03-20T14:18:04.743Z,43.87
2019-03-20T14:20:33.759Z,45.77
2019-03-20T14:23:02.735Z,53.87
2019-03-20T14:25:31.757Z,45.87
2019-03-20T14:28:00.616Z,48.77
2019-03-20T14:30:29.539Z,53.50
2019-03-20T14:32:58.583Z,52.07
2019-03-20T14:35:27.490Z,49.57
2019-03-20T14:37:56.388Z,49.57
2019-03-20T14:40:35.367Z,47.43
2019-03-20T14:42:59.379Z,48.13
2019-03-20T14:45:28.370Z,45.93
2019-03-20T14:47:57.367Z,50.77
2019-03-20T14:50:26.261Z,53.77
2019-03-20T14:52:55.259Z,52.77
2019-03-20T14:55:24.243Z,52.97
2019-03-20T14:57:53.123Z,56.13
2019-03-20T15:00:23.431Z,56.30
2019-03-20T15:02:52.359Z,57.77
2019-03-20T15:05:22.936Z,56.17
2019-03-20T15:07:51.847Z,52.60
2019-03-20T15:10:21.508Z,54.20
2019-03-20T15:12:50.556Z,53.53
2019-03-20T15:15:25.100Z,58.47
2019-03-20T15:17:53.996Z,53.17
2019-03-20T15:20:22.960Z,57.20
2019-03-20T15:22:51.878Z,57.57
2019-03-20T15:25:21.115Z,58.50
2019-03-20T15:27:50.066Z,57.73
2019-03-20T15:30:19.070Z,56.70
2019-03-20T15:32:47.950Z,55.10
2019-03-20T15:35:16.824Z,53.40
2019-03-20T15:37:45.627Z,53.37
2019-03-20T15:40:15.729Z,51.23
2019-03-20T15:42:44.823Z,51.87
2019-03-20T15:45:14.635Z,55.03
2019-03-20T15:47:43.766Z,59.40
2019-03-20T15:50:13.948Z,52.87
2019-03-20T15:52:42.900Z,52.67
2019-03-20T15:55:14.173Z,50.00
2019-03-20T15:57:43.091Z,53.07
2019-03-20T16:00:15.036Z,52.43
2019-03-20T16:02:43.941Z,50.10
2019-03-20T16:05:13.286Z,52.87
2019-03-20T16:07:42.401Z,51.43
2019-03-20T16:10:14.053Z,56.70
2019-03-20T16:12:43.028Z,56.10
2019-03-20T16:15:13.505Z,53.63
2019-03-20T16:17:42.389Z,51.73
2019-03-20T16:20:11.386Z,50.13
2019-03-20T16:22:40.442Z,50.50
2019-03-20T16:25:10.543Z,53.67
2019-03-20T16:27:39.375Z,53.20
2019-03-20T16:30:11.356Z,50.33
2019-03-20T16:32:40.215Z,51.80
2019-03-20T16:35:09.408Z,55.67
2019-03-20T16:37:38.291Z,54.00
2019-03-20T16:40:09.274Z,57.67
2019-03-20T16:42:38.118Z,51.30
2019-03-20T16:45:08.245Z,54.43
2019-03-20T16:47:37.125Z,56.40
2019-03-20T16:50:06.524Z,57.37
2019-03-20T16:52:35.358Z,60.27
2019-03-20T16:55:06.843Z,57.13
2019-03-20T16:57:35.720Z,55.73
2019-03-20T17:00:05.817Z,61.77
2019-03-20T17:02:34.707Z,60.97
2019-03-20T17:05:03.702Z,57.47
2019-03-20T17:07:39.666Z,58.10
2019-03-20T17:10:12.453Z,61.13
2019-03-20T17:12:41.368Z,62.13
2019-03-20T17:15:14.617Z,64.77
2019-03-20T17:17:43.524Z,61.70
2019-03-20T17:24:13.222Z,59.13
2019-03-20T17:27:24.663Z,81.22
2019-03-20T17:30:50.452Z,68.13
2019-03-20T17:33:52.579Z,60.77
2019-03-20T17:36:25.062Z,69.33
2019-03-20T17:45:59.666Z,73.33
2019-03-20T17:48:29.178Z,73.33
2019-03-20T17:51:10.524Z,70.07
2019-03-20T17:53:56.276Z,72.40
2019-03-20T17:56:28.548Z,73.87
2019-03-20T18:02:23.899Z,65.77
2019-03-20T18:04:53.397Z,69.53
2019-03-20T18:07:28.265Z,74.30
2019-03-20T18:10:03.076Z,68.77
2019-03-20T18:16:25.333Z,67.87
2019-03-20T18:18:44.778Z,63.17
2019-03-20T18:24:11.971Z,71.83
2019-03-20T18:27:00.029Z,59.70
2019-03-20T18:30:05.061Z,62.87
2019-03-20T18:32:37.720Z,68.03
2019-03-20T18:35:08.477Z,75.43
2019-03-20T18:37:37.959Z,63.77
2019-03-20T18:40:09.264Z,65.97
2019-03-20T18:42:38.498Z,67.30
2019-03-20T18:45:08.212Z,67.87
2019-03-20T18:47:38.447Z,64.37
2019-03-20T18:50:07.499Z,67.07
2019-03-20T18:52:36.686Z,59.33
2019-03-20T18:55:14.812Z,60.93
2019-03-20T18:57:46.566Z,64.33
2019-03-20T19:00:25.423Z,61.07
2019-03-20T19:02:55.360Z,58.87
2019-03-20T19:05:58.653Z,66.10
2019-03-20T19:28:57.283Z,62.73
2019-03-20T19:31:28.844Z,67.00
2019-03-20T19:33:59.580Z,64.33
2019-03-20T19:36:29.529Z,63.97
2019-03-20T19:39:00.743Z,59.57
2019-03-20T19:41:30.762Z,65.83
2019-03-20T19:44:00.770Z,62.63
2019-03-20T19:46:33.430Z,62.07
2019-03-20T19:49:02.449Z,61.57
2019-03-20T19:51:31.612Z,63.97
2019-03-20T19:54:00.587Z,61.33
2019-03-20T19:56:29.916Z,62.57
2019-03-20T19:58:58.848Z,67.17
2019-03-20T20:01:31.133Z,60.53
2019-03-20T20:04:00.185Z,63.27
2019-03-20T20:06:30.358Z,63.27
2019-03-20T20:09:00.388Z,62.13
2019-03-20T20:11:29.235Z,65.03
2019-03-20T20:13:58.347Z,67.53
2019-03-20T20:16:27.492Z,67.27
2019-03-20T20:18:56.765Z,66.23
2019-03-20T20:21:25.972Z,66.73
2019-03-20T20:23:55.309Z,71.70
2019-03-20T20:26:24.299Z,68.50
2019-03-20T20:28:53.130Z,70.03
2019-03-20T20:31:24.532Z,71.80
2019-03-20T20:33:53.646Z,67.80
2019-03-20T20:36:22.472Z,67.43
2019-03-20T20:38:51.661Z,72.00
2019-03-20T20:41:21.166Z,66.83
2019-03-20T20:43:50.069Z,76.60
2019-03-20T20:46:18.873Z,81.10
2019-03-20T20:48:49.076Z,74.53
2019-03-20T20:51:18.093Z,77.07
2019-03-20T20:53:46.898Z,64.27
2019-03-20T20:56:16.260Z,77.50
2019-03-20T20:58:45.628Z,71.33
2019-03-20T21:01:15.286Z,68.93
2019-03-20T21:07:11.943Z,76.57
2019-03-20T21:09:40.787Z,65.90
2019-03-20T21:12:13.196Z,68.47
2019-03-20T21:14:42.631Z,65.80
2019-03-20T21:17:16.510Z,73.33
2019-03-20T21:19:48.012Z,67.13
2019-03-20T21:23:04.564Z,65.70
2019-03-20T21:25:35.702Z,71.37
2019-03-20T21:28:42.375Z,68.00
2019-03-20T21:31:20.973Z,69.03
2019-03-20T21:34:30.985Z,76.37
2019-03-20T21:37:35.667Z,65.43
2019-03-20T21:40:06.202Z,75.67
2019-03-20T21:43:18.674Z,71.50
2019-03-20T21:46:40.508Z,67.90
2019-03-20T21:49:10.011Z,67.50
2019-03-20T21:51:39.375Z,66.37
2019-03-20T21:54:49.734Z,65.90
2019-03-20T21:57:47.626Z,66.00
2019-03-20T22:01:25.180Z,63.47
2019-03-20T22:03:54.580Z,61.00
2019-03-20T22:06:59.085Z,62.10
2019-03-20T22:10:05.742Z,70.30
2019-03-20T22:12:59.265Z,68.50
2019-03-20T22:15:51.158Z,69.97
2019-03-20T22:19:04.224Z,66.63
2019-03-20T22:22:01.623Z,75.40
2019-03-20T22:24:52.433Z,67.87
2019-03-20T22:27:31.581Z,62.53
2019-03-20T22:30:01.119Z,78.67
2019-03-20T22:33:17.427Z,72.63
2019-03-20T22:35:53.060Z,66.87
2019-03-20T22:39:01.660Z,72.00
2019-03-20T22:41:57.482Z,72.93
2019-03-20T22:44:29.798Z,74.07
2019-03-20T22:48:07.037Z,66.43
2019-03-20T22:51:15.730Z,72.00
2019-03-20T22:54:08.598Z,71.10
2019-03-20T22:57:24.221Z,74.13
2019-03-20T22:59:53.885Z,66.97
2019-03-20T23:02:51.088Z,69.33
2019-03-20T23:05:20.691Z,72.73
2019-03-20T23:07:50.511Z,65.63
2019-03-20T23:10:20.047Z,67.90
2019-03-20T23:12:49.425Z,68.53
2019-03-20T23:15:19.803Z,66.17
2019-03-20T23:17:50.791Z,69.77
2019-03-20T23:20:23.580Z,71.43
2019-03-20T23:22:54.365Z,65.77
2019-03-20T23:25:28.555Z,78.20
2019-03-20T23:27:57.908Z,71.93
2019-03-20T23:30:27.807Z,75.33
2019-03-20T23:32:57.220Z,69.17
2019-03-20T23:35:26.684Z,78.97
2019-03-20T23:37:56.085Z,74.87
2019-03-20T23:40:25.647Z,77.93
2019-03-20T23:42:55.279Z,77.73
2019-03-20T23:45:25.372Z,83.30
2019-03-20T23:48:01.071Z,83.90
2019-03-20T23:50:30.591Z,77.03
2019-03-20T23:53:00.287Z,82.57
2019-03-20T23:55:29.844Z,79.27
2019-03-20T23:57:59.619Z,79.50
